sensor_id;sensor_type;location;lat;lon;timestamp;pressure;altitude;pressure_sealevel;temperature;humidity
63819;BME280;49970;54.976;73.248;2024-02-04T00:02:12;99596.47;;;-12.74;89.25
63819;BME280;49970;54.976;73.248;2024-02-04T00:04:40;99593.84;;;-12.80;88.83
63819;BME280;49970;54.976;73.248;2024-02-04T00:07:09;99587.09;;;-12.76;88.36
63819;BME280;49970;54.976;73.248;2024-02-04T00:09:36;99597.38;;;-12.67;88.48
63819;BME280;49970;54.976;73.248;2024-02-04T00:12:02;99585.47;;;-12.70;89.18
63819;BME280;49970;54.976;73.248;2024-02-04T00:14:29;99606.81;;;-12.62;88.74
63819;BME280;49970;54.976;73.248;2024-02-04T00:17:16;99585.59;;;-12.58;88.10
63819;BME280;49970;54.976;73.248;2024-02-04T00:24:17;99582.19;;;-12.57;88.42
63819;BME280;49970;54.976;73.248;2024-02-04T00:27:53;99589.84;;;-12.55;88.03
63819;BME280;49970;54.976;73.248;2024-02-04T00:31:24;99580.50;;;-12.56;89.28
63819;BME280;49970;54.976;73.248;2024-02-04T00:38:26;99570.28;;;-12.58;88.04
63819;BME280;49970;54.976;73.248;2024-02-04T00:42:02;99559.22;;;-12.58;89.06
63819;BME280;49970;54.976;73.248;2024-02-04T00:45:13;99540.47;;;-12.66;89.11
63819;BME280;49970;54.976;73.248;2024-02-04T00:47:40;99543.13;;;-12.52;88.09
63819;BME280;49970;54.976;73.248;2024-02-04T00:50:06;99537.19;;;-12.51;88.92
63819;BME280;49970;54.976;73.248;2024-02-04T00:52:34;99541.47;;;-12.49;87.87
63819;BME280;49970;54.976;73.248;2024-02-04T00:55:00;99531.28;;;-12.44;89.24
63819;BME280;49970;54.976;73.248;2024-02-04T00:57:26;99540.66;;;-12.43;88.95
63819;BME280;49970;54.976;73.248;2024-02-04T00:59:53;99543.25;;;-12.37;88.32
63819;BME280;49970;54.976;73.248;2024-02-04T01:02:19;99537.31;;;-12.36;88.64
63819;BME280;49970;54.976;73.248;2024-02-04T01:04:45;99528.81;;;-12.35;88.96
63819;BME280;49970;54.976;73.248;2024-02-04T01:07:12;99531.44;;;-12.27;89.50
63819;BME280;49970;54.976;73.248;2024-02-04T01:09:38;99526.34;;;-12.26;nan
63819;BME280;49970;54.976;73.248;2024-02-04T01:12:04;99527.22;;;-12.22;89.60
63819;BME280;49970;54.976;73.248;2024-02-04T01:14:31;99516.16;;;-12.24;89.39
63819;BME280;49970;54.976;73.248;2024-02-04T01:16:57;99491.41;;;-12.35;88.91
63819;BME280;49970;54.976;73.248;2024-02-04T01:19:23;99525.56;;;-12.13;89.04
63819;BME280;49970;54.976;73.248;2024-02-04T01:21:50;99529.91;;;-12.07;90.01
63819;BME280;49970;54.976;73.248;2024-02-04T01:24:16;99498.31;;;-12.17;89.97
63819;BME280;49970;54.976;73.248;2024-02-04T01:26:43;99513.75;;;-12.01;89.94
63819;BME280;49970;54.976;73.248;2024-02-04T01:29:29;99489.88;;;-12.08;89.04
63819;BME280;49970;54.976;73.248;2024-02-04T01:32:40;99495.88;;;-12.03;89.34
63819;BME280;49970;54.976;73.248;2024-02-04T01:35:07;99497.63;;;-11.97;89.32
63819;BME280;49970;54.976;73.248;2024-02-04T01:37:33;99501.03;;;-11.94;89.94
63819;BME280;49970;54.976;73.248;2024-02-04T01:40:00;99495.94;;;-11.92;89.81
63819;BME280;49970;54.976;73.248;2024-02-04T01:42:26;99472.09;;;-11.94;89.57
63819;BME280;49970;54.976;73.248;2024-02-04T01:44:52;99475.50;;;-11.92;90.22
63819;BME280;49970;54.976;73.248;2024-02-04T01:47:19;99485.75;;;-11.83;89.48
63819;BME280;49970;54.976;73.248;2024-02-04T01:49:47;99477.25;;;-11.81;89.63
63819;BME280;49970;54.976;73.248;2024-02-04T01:52:14;99475.56;;;-11.77;90.26
63819;BME280;49970;54.976;73.248;2024-02-04T01:54:41;99481.53;;;-11.70;90.25
63819;BME280;49970;54.976;73.248;2024-02-04T01:57:09;99478.13;;;-11.71;90.29
63819;BME280;49970;54.976;73.248;2024-02-04T01:59:38;99476.50;;;-11.60;90.12
63819;BME280;49970;54.976;73.248;2024-02-04T02:02:06;99476.53;;;-11.57;90.28
63819;BME280;49970;54.976;73.248;2024-02-04T02:04:32;99480.78;;;-11.54;90.35
63819;BME280;49970;54.976;73.248;2024-02-04T02:06:59;99471.41;;;-11.55;90.53
63819;BME280;49970;54.976;73.248;2024-02-04T02:09:26;99469.72;;;-11.51;90.57
63819;BME280;49970;54.976;73.248;2024-02-04T02:12:10;99474.00;;;-11.41;90.63
63819;BME280;49970;54.976;73.248;2024-02-04T02:14:42;99456.94;;;-11.50;90.84
63819;BME280;49970;54.976;73.248;2024-02-04T02:17:11;99475.72;;;-11.37;90.58
63819;BME280;49970;54.976;73.248;2024-02-04T02:19:49;99468.94;;;-11.35;90.44
63819;BME280;49970;54.976;73.248;2024-02-04T02:22:32;99471.50;;;-11.32;90.54
63819;BME280;49970;54.976;73.248;2024-02-04T02:25:04;99467.25;;;-11.30;90.79
63819;BME280;49970;54.976;73.248;2024-02-04T02:27:31;99465.53;;;-11.30;90.54
63819;BME280;49970;54.976;73.248;2024-02-04T02:29:57;99457.00;;;-11.29;90.70
63819;BME280;49970;54.976;73.248;2024-02-04T02:32:24;99451.94;;;-11.24;90.86
63819;BME280;49970;54.976;73.248;2024-02-04T02:35:02;99433.19;;;-11.27;90.87
63819;BME280;49970;54.976;73.248;2024-02-04T02:37:59;99443.41;;;-11.17;91.02
63819;BME280;49970;54.976;73.248;2024-02-04T02:40:38;99424.66;;;-11.20;91.45
63819;BME280;49970;54.976;73.248;2024-02-04T02:43:06;99434.94;;;-11.11;91.03
63819;BME280;49970;54.976;73.248;2024-02-04T02:45:35;99436.63;;;-11.07;91.23
63819;BME280;49970;54.976;73.248;2024-02-04T02:48:02;99425.53;;;-11.08;91.61
63819;BME280;49970;54.976;73.248;2024-02-04T02:50:32;99435.78;;;-10.98;91.39
63819;BME280;49970;54.976;73.248;2024-02-04T02:52:59;99422.16;;;-10.99;91.39
63819;BME280;49970;54.976;73.248;2024-02-04T02:55:25;99418.75;;;-10.92;91.21
63819;BME280;49970;54.976;73.248;2024-02-04T02:57:52;99416.19;;;-10.87;91.56
63819;BME280;49970;54.976;73.248;2024-02-04T03:00:18;99410.22;;;-10.89;91.40
63819;BME280;49970;54.976;73.248;2024-02-04T03:02:45;99424.72;;;-10.79;91.62
63819;BME280;49970;54.976;73.248;2024-02-04T03:05:18;99411.09;;;-10.72;91.77
63819;BME280;49970;54.976;73.248;2024-02-04T03:07:45;99422.16;;;-10.68;91.94
63819;BME280;49970;54.976;73.248;2024-02-04T03:10:11;99406.81;;;-10.71;91.64
63819;BME280;49970;54.976;73.248;2024-02-04T03:12:37;99404.25;;;-10.67;91.91
63819;BME280;49970;54.976;73.248;2024-02-04T03:15:05;99400.00;;;-10.63;91.91
63819;BME280;49970;54.976;73.248;2024-02-04T03:17:32;99408.50;;;-10.55;91.41
63819;BME280;49970;54.976;73.248;2024-02-04T03:19:58;99412.75;;;-10.49;91.95
63819;BME280;49970;54.976;73.248;2024-02-04T03:22:26;99404.25;;;-10.50;91.68
63819;BME280;49970;54.976;73.248;2024-02-04T03:24:52;99393.16;;;-10.50;92.10
63819;BME280;49970;54.976;73.248;2024-02-04T03:27:20;99407.66;;;-10.39;92.61
63819;BME280;49970;54.976;73.248;2024-02-04T03:29:48;99396.56;;;-10.39;92.54
63819;BME280;49970;54.976;73.248;2024-02-04T03:32:14;99396.56;;;-10.32;92.77
63819;BME280;49970;54.976;73.248;2024-02-04T03:34:44;99382.91;;;-10.32;92.30
63819;BME280;49970;54.976;73.248;2024-02-04T03:37:11;99391.41;;;-10.24;92.93
63819;BME280;49970;54.976;73.248;2024-02-04T03:39:38;99393.06;;;-10.18;92.54
63819;BME280;49970;54.976;73.248;2024-02-04T03:42:05;99388.81;;;-10.19;92.69
63819;BME280;49970;54.976;73.248;2024-02-04T03:44:31;99383.66;;;-10.07;93.23
63819;BME280;49970;54.976;73.248;2024-02-04T03:46:58;99364.00;;;-10.04;92.37
63819;BME280;49970;54.976;73.248;2024-02-04T03:49:24;99381.88;;;-9.91;92.88
63819;BME280;49970;54.976;73.248;2024-02-04T03:51:51;99373.31;;;-9.84;92.78
63819;BME280;49970;54.976;73.248;2024-02-04T03:54:17;99369.88;;;-9.79;92.47
63819;BME280;49970;54.976;73.248;2024-02-04T03:56:45;99365.59;;;-9.72;93.81
63819;BME280;49970;54.976;73.248;2024-02-04T03:59:26;99364.75;;;-9.72;93.14
63819;BME280;49970;54.976;73.248;2024-02-04T04:01:52;99362.97;;;-9.63;93.10
63819;BME280;49970;54.976;73.248;2024-02-04T04:04:42;99358.66;;;-9.55;94.00
63819;BME280;49970;54.976;73.248;2024-02-04T04:07:13;99351.78;;;-9.46;93.46
63819;BME280;49970;54.976;73.248;2024-02-04T04:09:39;99245.34;;;-10.06;92.87
63819;BME280;49970;54.976;73.248;2024-02-04T04:12:06;99350.03;;;-9.38;93.08
63819;BME280;49970;54.976;73.248;2024-02-04T04:14:52;99342.28;;;-9.32;93.21
63819;BME280;49970;54.976;73.248;2024-02-04T04:18:03;99337.22;;;-9.38;92.92
63819;BME280;49970;54.976;73.248;2024-02-04T04:20:30;99343.97;;;-9.23;94.43
63819;BME280;49970;54.976;73.248;2024-02-04T04:23:16;99337.06;;;-9.17;94.18
63819;BME280;49970;54.976;73.248;2024-02-04T04:26:27;99347.28;;;-9.11;93.34
63819;BME280;49970;54.976;73.248;2024-02-04T04:28:54;99344.66;;;-9.05;93.26
63819;BME280;49970;54.976;73.248;2024-02-04T04:31:20;99336.91;;;-8.97;93.54
63819;BME280;49970;54.976;73.248;2024-02-04T04:33:47;99334.28;;;-8.91;93.92
63819;BME280;49970;54.976;73.248;2024-02-04T04:36:13;99334.25;;;-8.86;93.59
63819;BME280;49970;54.976;73.248;2024-02-04T04:38:41;99320.56;;;-8.85;94.34
63819;BME280;49970;54.976;73.248;2024-02-04T04:41:09;99330.72;;;-8.73;94.22
63819;BME280;49970;54.976;73.248;2024-02-04T04:43:42;99322.09;;;-8.67;95.18
63819;BME280;49970;54.976;73.248;2024-02-04T04:46:20;99313.50;;;-8.62;94.44
63819;BME280;49970;54.976;73.248;2024-02-04T04:48:46;99310.81;;;-8.51;94.73
63819;BME280;49970;54.976;73.248;2024-02-04T04:51:12;99303.00;;;-8.40;94.71
63819;BME280;49970;54.976;73.248;2024-02-04T04:53:39;99296.84;;;-8.29;95.53
63819;BME280;49970;54.976;73.248;2024-02-04T04:56:06;99301.75;;;-8.09;95.55
63819;BME280;49970;54.976;73.248;2024-02-04T04:58:32;99260.75;;;-8.16;95.09
63819;BME280;49970;54.976;73.248;2024-02-04T05:00:58;99298.78;;;-7.78;95.11
63819;BME280;49970;54.976;73.248;2024-02-04T05:03:25;99287.50;;;-7.66;95.22
63819;BME280;49970;54.976;73.248;2024-02-04T05:05:53;99292.50;;;-7.56;95.14
63819;BME280;49970;54.976;73.248;2024-02-04T05:08:20;99283.72;;;-7.42;95.49
63819;BME280;49970;54.976;73.248;2024-02-04T05:10:46;99285.31;;;-7.34;95.17
63819;BME280;49970;54.976;73.248;2024-02-04T05:13:15;99277.38;;;-7.18;95.62
63819;BME280;49970;54.976;73.248;2024-02-04T05:15:42;99280.66;;;-7.12;95.46
63819;BME280;49970;54.976;73.248;2024-02-04T05:18:08;99275.28;;;-6.96;95.81
63819;BME280;49970;54.976;73.248;2024-02-04T05:20:34;99267.50;;;-6.93;96.17
63819;BME280;49970;54.976;73.248;2024-02-04T05:23:01;99282.63;;;-6.75;95.98
63819;BME280;49970;54.976;73.248;2024-02-04T05:25:28;99274.78;;;-6.67;96.02
63819;BME280;49970;54.976;73.248;2024-02-04T05:27:54;99265.22;;;-6.62;96.10
63819;BME280;49970;54.976;73.248;2024-02-04T05:30:22;99274.47;;;-6.50;95.98
63819;BME280;49970;54.976;73.248;2024-02-04T05:32:49;99270.88;;;-6.42;96.31
63819;BME280;49970;54.976;73.248;2024-02-04T05:35:27;99272.47;;;-6.36;96.28
63819;BME280;49970;54.976;73.248;2024-02-04T05:38:01;99273.22;;;-6.30;96.50
63819;BME280;49970;54.976;73.248;2024-02-04T05:40:30;99255.19;;;-6.31;96.54
63819;BME280;49970;54.976;73.248;2024-02-04T05:43:01;99280.59;;;-6.13;96.65
63819;BME280;49970;54.976;73.248;2024-02-04T05:45:33;99260.78;;;-6.09;96.75
63819;BME280;49970;54.976;73.248;2024-02-04T05:48:00;99272.34;;;-5.90;97.04
63819;BME280;49970;54.976;73.248;2024-02-04T05:50:26;99274.78;;;-5.82;97.08
63819;BME280;49970;54.976;73.248;2024-02-04T05:52:53;99265.19;;;-5.76;97.02
63819;BME280;49970;54.976;73.248;2024-02-04T05:55:20;99283.88;;;-5.66;97.35
63819;BME280;49970;54.976;73.248;2024-02-04T05:57:46;99264.97;;;-5.66;96.63
63819;BME280;49970;54.976;73.248;2024-02-04T06:00:12;99280.06;;;-5.49;97.50
63819;BME280;49970;54.976;73.248;2024-02-04T06:02:40;99283.34;;;-5.41;97.97
63819;BME280;49970;54.976;73.248;2024-02-04T06:05:07;99279.84;;;-5.39;97.66
63819;BME280;49970;54.976;73.248;2024-02-04T06:07:33;99283.00;;;-5.26;98.00
63819;BME280;49970;54.976;73.248;2024-02-04T06:10:00;99278.50;;;-5.18;98.11
63819;BME280;49970;54.976;73.248;2024-02-04T06:12:31;99252.03;;;-5.26;98.40
63819;BME280;49970;54.976;73.248;2024-02-04T06:14:58;99281.69;;;-5.08;97.48
63819;BME280;49970;54.976;73.248;2024-02-04T06:17:24;99270.53;;;-5.09;97.19
63819;BME280;49970;54.976;73.248;2024-02-04T06:20:11;99287.47;;;-4.97;97.42
63819;BME280;49970;54.976;73.248;2024-02-04T06:23:23;99283.88;;;-4.91;97.70
63819;BME280;49970;54.976;73.248;2024-02-04T06:25:50;99276.78;;;-4.83;97.97
63819;BME280;49970;54.976;73.248;2024-02-04T06:28:17;99284.34;;;-4.77;98.23
63819;BME280;49970;54.976;73.248;2024-02-04T06:30:43;99271.44;;;-4.77;98.21
63819;BME280;49970;54.976;73.248;2024-02-04T06:33:10;99285.84;;;-4.67;98.50
63819;BME280;49970;54.976;73.248;2024-02-04T06:35:37;99289.13;;;-4.62;98.31
63819;BME280;49970;54.976;73.248;2024-02-04T06:38:06;99296.69;;;-4.54;98.64
63819;BME280;49970;54.976;73.248;2024-02-04T06:40:35;99284.56;;;-4.52;98.61
63819;BME280;49970;54.976;73.248;2024-02-04T06:43:04;99293.06;;;-4.47;98.23
63819;BME280;49970;54.976;73.248;2024-02-04T06:45:33;99295.59;;;-4.45;99.24
63819;BME280;49970;54.976;73.248;2024-02-04T06:47:59;99288.63;;;-4.42;99.02
63819;BME280;49970;54.976;73.248;2024-02-04T06:50:26;99297.88;;;-4.33;98.98
63819;BME280;49970;54.976;73.248;2024-02-04T06:52:54;99265.44;;;-4.45;98.81
63819;BME280;49970;54.976;73.248;2024-02-04T06:55:22;99288.09;;;-4.23;98.13
63819;BME280;49970;54.976;73.248;2024-02-04T06:57:49;99290.63;;;-4.20;98.56
63819;BME280;49970;54.976;73.248;2024-02-04T07:00:16;99286.25;;;-4.18;99.06
63819;BME280;49970;54.976;73.248;2024-02-04T07:02:42;99283.75;;;-4.21;98.51
63819;BME280;49970;54.976;73.248;2024-02-04T07:05:09;99297.22;;;-4.10;99.02
63819;BME280;49970;54.976;73.248;2024-02-04T07:07:37;99292.78;;;-4.05;98.36
63819;BME280;49970;54.976;73.248;2024-02-04T07:10:05;99291.91;;;-4.04;99.02
63819;BME280;49970;54.976;73.248;2024-02-04T07:12:32;99292.66;;;-4.01;98.48
63819;BME280;49970;54.976;73.248;2024-02-04T07:14:58;99291.56;;;-3.93;98.54
63819;BME280;49970;54.976;73.248;2024-02-04T07:17:25;99296.66;;;-3.90;99.06
63819;BME280;49970;54.976;73.248;2024-02-04T07:19:51;99299.94;;;-3.84;98.44
63819;BME280;49970;54.976;73.248;2024-02-04T07:22:17;99298.06;;;-3.79;98.68
63819;BME280;49970;54.976;73.248;2024-02-04T07:24:44;99290.97;;;-3.72;99.02
63819;BME280;49970;54.976;73.248;2024-02-04T07:27:10;99292.66;;;-3.71;98.93
63819;BME280;49970;54.976;73.248;2024-02-04T07:29:36;99286.78;;;-3.76;98.88
63819;BME280;49970;54.976;73.248;2024-02-04T07:32:04;99298.53;;;-3.66;99.02
63819;BME280;49970;54.976;73.248;2024-02-04T07:34:30;99295.06;;;-3.65;98.52
63819;BME280;49970;54.976;73.248;2024-02-04T07:36:58;99283.03;;;-3.66;98.84
63819;BME280;49970;54.976;73.248;2024-02-04T07:39:24;99290.50;;;-3.57;99.00
63819;BME280;49970;54.976;73.248;2024-02-04T07:41:52;99276.63;;;-3.54;99.20
63819;BME280;49970;54.976;73.248;2024-02-04T07:44:21;99275.72;;;-3.53;99.16
63819;BME280;49970;54.976;73.248;2024-02-04T07:46:49;99285.16;;;-3.51;99.14
63819;BME280;49970;54.976;73.248;2024-02-04T07:49:15;99289.38;;;-3.48;98.92
63819;BME280;49970;54.976;73.248;2024-02-04T07:51:42;99279.91;;;-3.49;98.77
63819;BME280;49970;54.976;73.248;2024-02-04T07:54:08;99293.63;;;-3.45;98.86
63819;BME280;49970;54.976;73.248;2024-02-04T07:56:34;99287.47;;;-3.41;98.89
63819;BME280;49970;54.976;73.248;2024-02-04T07:59:01;99292.56;;;-3.38;99.06
63819;BME280;49970;54.976;73.248;2024-02-04T08:01:30;99300.19;;;-3.35;99.20
63819;BME280;49970;54.976;73.248;2024-02-04T08:03:57;99301.03;;;-3.33;99.74
63819;BME280;49970;54.976;73.248;2024-02-04T08:06:23;99300.06;;;-3.31;99.50
63819;BME280;49970;54.976;73.248;2024-02-04T08:08:51;99300.06;;;-3.31;99.09
63819;BME280;49970;54.976;73.248;2024-02-04T08:11:18;99289.00;;;-3.36;99.62
63819;BME280;49970;54.976;73.248;2024-02-04T08:13:44;99308.56;;;-3.26;99.36
63819;BME280;49970;54.976;73.248;2024-02-04T08:16:11;99310.25;;;-3.26;98.89
63819;BME280;49970;54.976;73.248;2024-02-04T08:22:08;99307.75;;;-3.28;99.44
63819;BME280;49970;54.976;73.248;2024-02-04T08:24:39;99309.41;;;-3.25;99.15
63819;BME280;49970;54.976;73.248;2024-02-04T08:27:11;99307.59;;;-3.23;99.21
63819;BME280;49970;54.976;73.248;2024-02-04T08:29:46;99312.75;;;-3.21;99.11
63819;BME280;49970;54.976;73.248;2024-02-04T08:32:16;99304.16;;;-3.23;99.48
63819;BME280;49970;54.976;73.248;2024-02-04T08:35:04;99317.03;;;-3.20;99.17
63819;BME280;49970;54.976;73.248;2024-02-04T08:37:38;99303.16;;;-3.19;99.34
63819;BME280;49970;54.976;73.248;2024-02-04T08:40:13;99304.22;;;-3.25;99.50
63819;BME280;49970;54.976;73.248;2024-02-04T08:42:42;99320.47;;;-3.20;99.32
63819;BME280;49970;54.976;73.248;2024-02-04T08:45:14;99314.44;;;-3.20;99.57
63819;BME280;49970;54.976;73.248;2024-02-04T08:48:03;99310.25;;;-3.26;99.46
63819;BME280;49970;54.976;73.248;2024-02-04T08:51:35;99313.59;;;-3.21;99.58
63819;BME280;49970;54.976;73.248;2024-02-04T08:55:07;99321.34;;;-3.21;99.52
63819;BME280;49970;54.976;73.248;2024-02-04T08:58:39;99307.59;;;-3.23;100.00
63819;BME280;49970;54.976;73.248;2024-02-04T09:01:52;99323.09;;;-3.21;99.89
63819;BME280;49970;54.976;73.248;2024-02-04T09:04:24;99317.09;;;-3.23;99.81
63819;BME280;49970;54.976;73.248;2024-02-04T09:06:55;99323.03;;;-3.20;99.69
63819;BME280;49970;54.976;73.248;2024-02-04T09:09:26;99325.56;;;-3.18;99.79
63819;BME280;49970;54.976;73.248;2024-02-04T09:11:57;99335.09;;;-3.19;99.74
63819;BME280;49970;54.976;73.248;2024-02-04T09:14:31;99333.34;;;-3.18;99.39
63819;BME280;49970;54.976;73.248;2024-02-04T09:17:05;99342.06;;;-3.21;99.75
63819;BME280;49970;54.976;73.248;2024-02-04T09:19:38;99343.84;;;-3.23;99.23
63819;BME280;49970;54.976;73.248;2024-02-04T09:22:09;99337.91;;;-3.27;99.20
63819;BME280;49970;54.976;73.248;2024-02-04T09:24:41;99334.63;;;-3.32;99.75
63819;BME280;49970;54.976;73.248;2024-02-04T09:27:11;99345.75;;;-3.28;99.51
63819;BME280;49970;54.976;73.248;2024-02-04T09:29:42;99364.63;;;-3.24;99.54
63819;BME280;49970;54.976;73.248;2024-02-04T09:32:16;99348.41;;;-3.31;99.12
63819;BME280;49970;54.976;73.248;2024-02-04T09:34:49;99362.97;;;-3.27;99.15
63819;BME280;49970;54.976;73.248;2024-02-04T09:37:37;99382.88;;;-3.29;99.37
63819;BME280;49970;54.976;73.248;2024-02-04T09:41:13;99375.19;;;-3.32;99.06
63819;BME280;49970;54.976;73.248;2024-02-04T09:48:14;99389.22;;;-3.39;98.83
63819;BME280;49970;54.976;73.248;2024-02-04T09:51:26;99395.47;;;-3.46;98.61
63819;BME280;49970;54.976;73.248;2024-02-04T09:53:53;99402.38;;;-3.47;98.04
63819;BME280;49970;54.976;73.248;2024-02-04T09:56:24;99400.81;;;-3.53;97.98
63819;BME280;49970;54.976;73.248;2024-02-04T09:58:51;99407.94;;;-3.61;97.98
63819;BME280;49970;54.976;73.248;2024-02-04T10:01:19;99396.03;;;-3.66;97.71
63819;BME280;49970;54.976;73.248;2024-02-04T10:03:49;99405.69;;;-3.73;98.21
63819;BME280;49970;54.976;73.248;2024-02-04T10:06:16;99400.91;;;-3.87;98.49
63819;BME280;49970;54.976;73.248;2024-02-04T10:08:43;99415.50;;;-3.84;97.77
63819;BME280;49970;54.976;73.248;2024-02-04T10:11:09;99391.06;;;-4.05;97.72
63819;BME280;49970;54.976;73.248;2024-02-04T10:13:49;99433.00;;;-3.94;97.41
63819;BME280;49970;54.976;73.248;2024-02-04T10:16:17;99432.28;;;-3.99;98.00
63819;BME280;49970;54.976;73.248;2024-02-04T10:18:47;99436.66;;;-4.03;97.84
63819;BME280;49970;54.976;73.248;2024-02-04T10:21:19;99442.00;;;-4.09;97.31
63819;BME280;49970;54.976;73.248;2024-02-04T10:23:49;99448.03;;;-4.08;97.18
63819;BME280;49970;54.976;73.248;2024-02-04T10:26:17;99457.66;;;-4.13;97.69
63819;BME280;49970;54.976;73.248;2024-02-04T10:28:47;99448.41;;;-4.23;97.89
63819;BME280;49970;54.976;73.248;2024-02-04T10:31:14;99454.47;;;-4.24;97.27
63819;BME280;49970;54.976;73.248;2024-02-04T10:33:40;99455.50;;;-4.32;97.36
63819;BME280;49970;54.976;73.248;2024-02-04T10:36:07;99473.53;;;-4.29;97.22
63819;BME280;49970;54.976;73.248;2024-02-04T10:38:34;99475.34;;;-4.32;97.69
63819;BME280;49970;54.976;73.248;2024-02-04T10:41:01;99485.75;;;-4.35;96.91
63819;BME280;49970;54.976;73.248;2024-02-04T10:43:31;99473.03;;;-4.44;97.21
63819;BME280;49970;54.976;73.248;2024-02-04T10:46:01;99493.69;;;-4.43;97.52
63819;BME280;49970;54.976;73.248;2024-02-04T10:48:29;99501.53;;;-4.47;97.40
63819;BME280;49970;54.976;73.248;2024-02-04T10:51:05;99495.59;;;-4.51;97.43
63819;BME280;49970;54.976;73.248;2024-02-04T10:53:32;99493.09;;;-4.54;97.22
63819;BME280;49970;54.976;73.248;2024-02-04T10:56:01;99497.53;;;-4.61;96.68
63819;BME280;49970;54.976;73.248;2024-02-04T10:58:29;99496.91;;;-4.70;97.04
63819;BME280;49970;54.976;73.248;2024-02-04T11:00:56;99508.88;;;-4.66;96.55
63819;BME280;49970;54.976;73.248;2024-02-04T11:03:23;99520.16;;;-4.70;96.97
63819;BME280;49970;54.976;73.248;2024-02-04T11:05:54;99527.13;;;-4.74;96.19
63819;BME280;49970;54.976;73.248;2024-02-04T11:08:21;99537.59;;;-4.80;96.21
63819;BME280;49970;54.976;73.248;2024-02-04T11:10:47;99546.25;;;-4.83;96.04
63819;BME280;49970;54.976;73.248;2024-02-04T11:13:15;99546.41;;;-4.90;96.46
63819;BME280;49970;54.976;73.248;2024-02-04T11:15:42;99550.91;;;-5.00;96.18
63819;BME280;49970;54.976;73.248;2024-02-04T11:26:24;99566.88;;;-5.24;95.81
63819;BME280;49970;54.976;73.248;2024-02-04T11:28:51;99580.69;;;-5.27;95.61
63819;BME280;49970;54.976;73.248;2024-02-04T11:31:19;99581.69;;;-5.34;95.56
63819;BME280;49970;54.976;73.248;2024-02-04T11:33:45;99598.13;;;-5.40;95.57
63819;BME280;49970;54.976;73.248;2024-02-04T11:36:16;99592.22;;;-5.48;95.03
63819;BME280;49970;54.976;73.248;2024-02-04T11:38:48;99618.06;;;-5.49;95.38
63819;BME280;49970;54.976;73.248;2024-02-04T11:41:23;99606.16;;;-5.57;94.53
63819;BME280;49970;54.976;73.248;2024-02-04T11:44:23;99617.44;;;-5.62;94.91
63819;BME280;49970;54.976;73.248;2024-02-04T11:46:56;99621.81;;;-5.69;94.94
63819;BME280;49970;54.976;73.248;2024-02-04T11:49:28;99625.38;;;-5.74;94.80
63819;BME280;49970;54.976;73.248;2024-02-04T11:52:01;99630.63;;;-5.81;95.02
63819;BME280;49970;54.976;73.248;2024-02-04T11:54:32;99626.41;;;-5.85;94.71
63819;BME280;49970;54.976;73.248;2024-02-04T11:57:03;99629.06;;;-5.89;95.01
63819;BME280;49970;54.976;73.248;2024-02-04T11:59:35;99631.72;;;-5.92;95.34
63819;BME280;49970;54.976;73.248;2024-02-04T12:02:07;99636.09;;;-5.97;95.28
63819;BME280;49970;54.976;73.248;2024-02-04T12:04:40;99633.53;;;-6.02;94.92
63819;BME280;49970;54.976;73.248;2024-02-04T12:07:17;99638.78;;;-6.07;95.09
63819;BME280;49970;54.976;73.248;2024-02-04T12:09:48;99640.53;;;-6.09;94.84
63819;BME280;49970;54.976;73.248;2024-02-04T12:12:19;99633.75;;;-6.14;95.04
63819;BME280;49970;54.976;73.248;2024-02-04T12:14:49;99629.47;;;-6.17;95.06
63819;BME280;49970;54.976;73.248;2024-02-04T12:17:19;99619.31;;;-6.26;94.77
63819;BME280;49970;54.976;73.248;2024-02-04T12:19:49;99628.78;;;-6.27;94.80
63819;BME280;49970;54.976;73.248;2024-02-04T12:22:21;99631.41;;;-6.33;94.81
63819;BME280;49970;54.976;73.248;2024-02-04T12:24:51;99639.22;;;-6.37;94.70
63819;BME280;49970;54.976;73.248;2024-02-04T12:27:23;99639.25;;;-6.39;94.78
63819;BME280;49970;54.976;73.248;2024-02-04T12:29:57;99644.47;;;-6.43;95.03
63819;BME280;49970;54.976;73.248;2024-02-04T12:32:28;99648.78;;;-6.47;94.58
63819;BME280;49970;54.976;73.248;2024-02-04T12:35:21;99654.00;;;-6.53;94.30
63819;BME280;49970;54.976;73.248;2024-02-04T12:38:10;99656.66;;;-6.59;94.42
63819;BME280;49970;54.976;73.248;2024-02-04T12:40:41;99677.31;;;-6.65;94.24
63819;BME280;49970;54.976;73.248;2024-02-04T12:43:11;99668.00;;;-6.74;94.95
63819;BME280;49970;54.976;73.248;2024-02-04T12:45:41;99684.28;;;-6.73;94.79
63819;BME280;49970;54.976;73.248;2024-02-04T12:48:15;99677.47;;;-6.78;94.70
63819;BME280;49970;54.976;73.248;2024-02-04T12:50:50;99685.22;;;-6.79;94.41
63819;BME280;49970;54.976;73.248;2024-02-04T12:53:21;99688.66;;;-6.82;94.43
63819;BME280;49970;54.976;73.248;2024-02-04T12:55:58;99693.88;;;-6.86;94.28
63819;BME280;49970;54.976;73.248;2024-02-04T12:58:30;99709.34;;;-6.88;94.53
63819;BME280;49970;54.976;73.248;2024-02-04T13:01:02;99707.72;;;-6.96;94.28
63819;BME280;49970;54.976;73.248;2024-02-04T13:03:33;99716.25;;;-6.94;93.90
63819;BME280;49970;54.976;73.248;2024-02-04T13:06:04;99716.28;;;-6.96;94.08
63819;BME280;49970;54.976;73.248;2024-02-04T13:08:34;99712.09;;;-7.06;94.03
63819;BME280;49970;54.976;73.248;2024-02-04T13:11:03;99724.09;;;-7.02;94.10
63819;BME280;49970;54.976;73.248;2024-02-04T13:13:38;99721.53;;;-7.05;93.72
63819;BME280;49970;54.976;73.248;2024-02-04T13:16:09;99717.25;;;-7.08;93.82
63819;BME280;49970;54.976;73.248;2024-02-04T13:18:42;99725.88;;;-7.10;93.71
63819;BME280;49970;54.976;73.248;2024-02-04T13:21:14;99724.16;;;-7.13;93.65
63819;BME280;49970;54.976;73.248;2024-02-04T13:23:49;99697.72;;;-7.32;93.45
63819;BME280;49970;54.976;73.248;2024-02-04T13:26:18;99729.34;;;-7.16;93.78
63819;BME280;49970;54.976;73.248;2024-02-04T13:28:49;99733.66;;;-7.19;93.92
63819;BME280;49970;54.976;73.248;2024-02-04T13:31:20;99729.41;;;-7.22;93.97
63819;BME280;49970;54.976;73.248;2024-02-04T13:34:11;99736.25;;;-7.21;93.15
63819;BME280;49970;54.976;73.248;2024-02-04T13:37:45;99745.72;;;-7.28;93.45
63819;BME280;49970;54.976;73.248;2024-02-04T13:41:16;99750.06;;;-7.31;93.78